Warroad, MN

09:45 CST le 19 décembre 2014 (GMT -0600)
Warroad International-Carlson | Change Station
CLOSE
Current Station
Aéroport
Location: Warroad,
Altitude: 1073 ft
Stations météo à proximité

Alt. 1073 ft 48.94 °N, 95.35 °W | Updated 11 minutes ago

Overcast
Couvert
21 ° F
Paraît 11 ° F
N
9
Vent Variable Vent de SSE

Aujourd'hui
Haut(e) -- | Bas -- ° F
--% Risque de précip.
Hier
Haut(e) -- | Bas -- ° F
Precip. -- pouce
8:11 AM 4:25 PM
Lune descendante, 7% visible
Pression 30.11 pouce
Visibilité 7.0 Miles terrestres
Nuages Couvert 3300 ft
Refroidissement éolien 11 ° F
Point de rosée 18 ° F
Humidité 86%
Précipitations 0.00 pouce
Profondeur de la couche neigeuse Non disponible.
UV 0 sur 12
Pollen .10 sur 12
Qualité de l'air Non disponible.
Flu Activity Non disponible.
METAR KRRT 191534Z AUTO 15008KT 7SM OVC033 M06/M08 A3011 RMK AO2

More Conditions Fewer Conditions

Pression 30.11 pouce
Visibilité 7.0 Miles terrestres
Nuages Couvert 3300 ft
Refroidissement éolien 11 ° F
Point de rosée 18 ° F
Humidité 86%
Précipitations 0.00 pouce
Profondeur de la couche neigeuse Non disponible.
UV 0 sur 12
Pollen .10 sur 12
Qualité de l'air Non disponible.
Flu Activity Non disponible.
METAR KRRT 191534Z AUTO 15008KT 7SM OVC033 M06/M08 A3011 RMK AO2

More Conditions Fewer Conditions

10-Day Weather Forecast

Almanac

Astronomie

Dec. 19, 2014 Lever Coucher
Temps réel
Crépuscule civil
Crépuscule nautique
Crépuscule astronomique
Lune
Durée de lumière visible
Longueur du jour
Tomorrow will be .
, % of the Moon is Illuminated

Extrêmes aujourd'hui

State Highs State Lows

Community

WunderPhotos

Upload Photos

1,778,997 Photos téléchargées !

WunderBlogs® & News

Nearby

Qualité de l'air

  Qualité de l'air Indice de la qualité de l'air Polluant
Not available.

Épaisseur de neige

Station Depth Altitude

Activité sismique

Ville Distance Mag. Time & Date
Minimum magnitude displayed is 2.5.

Températures des eaux côtières

Lieu Température

Stations météo à proximité